Latest Weather Observations for Tidbinbilla

IDN60801

Issued at 12:42 am EST Saturday 3 June 2023 (issued every 10 minutes, with the page automatically refreshed every 10 minutes)

About weather observations | Map of weather stations | Latest weather observations for NSW | Other Formats
Station Details ID: 250069 Name: TIDBINBILLA (PCS) Lat: -35.46 Lon: 148.94 Height: 883.0 m

Portable automatic weather stations (PAWS) are operated by other organisations, such as Fire and Emergency Services, and are included here by agreement. Portable stations may be deployed to a location for a short period and their location may be subject to change without notice. Wind observations from these stations are provided from heights of either three (3) or ten (10) metres above ground level (AGL).

Data from the previous 72 hours. | See also: Recent months for locations in New South Wales
Date/Time
EST
Temp
°C
App
Temp
°C
Dew
Point
°C
Rel
Hum
%
Delta-T
°C
Wind Press
QNH
hPa
Press
MSL
hPa
Rain since
9am
mm
Dir  Spd
km/h
Gust
km/h
Spd
kts
Gust
kts
03/12:30am 10.9 9.5 5.3 68 2.7 NNE 2 6 1 3 1026.2 - 0.0
03/12:20am 10.9 9.1 5.3 68 2.7 NNE 4 6 2 3 1026.2 - 0.0
03/12:10am 11.0 9.3 5.9 71 2.5 W 4 9 2 5 1026.2 - 0.0
03/12:00am 11.5 8.3 5.0 64 3.1 S 11 15 6 8 1026.1 - 0.0
 
Date/Time
EST
Temp
°C
App
Temp
°C
Dew
Point
°C
Rel
Hum
%
Delta-T
°C
Wind Press
QNH
hPa
Press
MSL
hPa
Rain since
9am
mm
Dir  Spd
km/h
Gust
km/h
Spd
kts
Gust
kts
02/11:50pm 10.9 9.0 5.0 67 2.8 SE 4 7 2 4 1026.1 - 0.0
02/11:40pm 11.0 9.4 6.4 73 2.3 ESE 4 6 2 3 1026.3 - 0.0
02/11:30pm 10.8 9.5 6.0 72 2.3 ENE 2 6 1 3 1026.4 - 0.0
02/11:20pm 11.1 9.5 6.5 73 2.3 ENE 4 4 2 2 1026.5 - 0.0
02/11:10pm 11.2 9.9 6.2 71 2.5 NE 2 4 1 2 1026.5 - 0.0
02/11:00pm 11.1 9.8 5.9 70 2.5 ENE 2 4 1 2 1026.5 - 0.0
02/10:50pm 10.9 9.2 5.8 71 2.5 SE 4 7 2 4 1026.5 - 0.0
02/10:40pm 10.6 9.0 6.3 75 2.1 SE 4 7 2 4 1026.4 - 0.0
02/10:30pm 10.6 9.7 6.2 74 2.2 CALM 0 0 0 0 1026.4 - 0.0
02/10:20pm 10.5 9.3 6.3 75 2.1 SSE 2 4 1 2 1026.5 - 0.0
02/10:10pm 10.6 9.4 6.6 76 2.0 SW 2 4 1 2 1026.4 - 0.0
02/10:00pm 10.7 9.9 6.5 75 2.1 CALM 0 0 0 0 1026.5 - 0.0
02/09:50pm 10.8 10.0 6.4 74 2.2 CALM 0 2 0 1 1026.6 - 0.0
02/09:40pm 10.9 9.7 6.5 74 2.2 E 2 4 1 2 1026.6 - 0.0
02/09:30pm 10.8 9.6 6.4 74 2.2 S 2 4 1 2 1026.7 - 0.0
02/09:20pm 10.7 9.5 6.5 75 2.1 SSE 2 6 1 3 1026.7 - 0.0
02/09:10pm 10.4 8.8 6.4 76 2.0 S 4 6 2 3 1026.7 - 0.0
02/09:00pm 10.2 9.4 6.5 78 1.8 CALM 0 0 0 0 1026.6 - 0.0
02/08:50pm 10.2 9.4 6.5 78 1.8 CALM 0 0 0 0 1026.5 - 0.0
02/08:40pm 10.1 9.3 6.6 79 1.7 CALM 0 0 0 0 1026.5 - 0.0
02/08:30pm 10.2 9.4 6.5 78 1.8 CALM 0 4 0 2 1026.4 - 0.0
02/08:20pm 10.2 9.0 6.6 78 1.8 S 2 2 1 1 1026.4 - 0.0
02/08:10pm 10.3 9.1 6.5 77 1.9 S 2 4 1 2 1026.4 - 0.0
02/08:00pm 10.3 9.5 6.6 78 1.8 CALM 0 2 0 1 1026.2 - 0.0
02/07:50pm 10.5 9.3 6.5 76 2.0 SW 2 4 1 2 1026.2 - 0.0
02/07:40pm 10.6 9.0 6.3 75 2.1 SW 4 6 2 3 1025.9 - 0.0
02/07:30pm 10.4 8.8 6.2 75 2.1 S 4 6 2 3 1025.9 - 0.0
02/07:20pm 10.3 9.1 6.3 76 2.0 SSW 2 4 1 2 1025.9 - 0.0
02/07:10pm 10.5 9.7 6.6 77 1.9 CALM 0 2 0 1 1025.8 - 0.0
02/07:00pm 10.8 9.6 6.5 75 2.1 W 2 4 1 2 1025.7 - 0.0
02/06:50pm 11.0 9.7 6.2 72 2.4 SW 2 4 1 2 1025.4 - 0.0
02/06:40pm 11.0 9.4 6.2 72 2.4 S 4 4 2 2 1025.3 - 0.0
02/06:30pm 11.1 9.5 6.4 73 2.3 S 4 6 2 3 1025.3 - 0.0
02/06:20pm 11.1 9.6 6.6 74 2.2 S 4 6 2 3 1025.4 - 0.0
02/06:10pm 11.1 10.3 6.7 74 2.2 CALM 0 2 0 1 1025.3 - 0.0
02/06:00pm 10.9 9.8 7.0 77 2.0 S 2 4 1 2 1025.3 - 0.0
02/05:50pm 11.0 10.1 7.7 80 1.7 S 2 4 1 2 1025.3 - 0.0
02/05:40pm 11.1 10.0 8.3 83 1.4 SSW 4 7 2 4 1025.1 - 0.0
02/05:30pm 11.1 9.9 8.1 82 1.5 S 4 4 2 2 1024.9 - 0.0
02/05:20pm 11.3 10.3 9.0 86 1.2 S 4 6 2 3 1024.8 - 0.0
02/05:10pm 12.0 11.0 8.9 81 1.6 W 4 7 2 4 1024.8 - 0.0
02/05:00pm 12.0 11.1 7.9 76 2.1 W 2 4 1 2 1024.6 - 0.0
02/04:50pm 12.3 11.7 9.0 80 1.7 W 2 6 1 3 1024.5 - 0.0
02/04:40pm 12.6 11.1 8.3 75 2.2 NNE 6 9 3 5 1024.4 - 0.0
02/04:30pm 12.6 10.9 8.4 75 2.2 NE 7 9 4 5 1024.5 - 0.0
02/04:20pm 12.9 12.3 9.1 78 2.0 NE 2 4 1 2 1024.5 - 0.0
02/04:10pm 13.3 12.0 9.2 76 2.2 NNE 6 7 3 4 1024.4 - 0.0
02/04:00pm 13.7 12.4 9.1 74 2.4 N 6 9 3 5 1024.4 - 0.0
02/03:50pm 13.5 11.6 9.2 75 2.3 NNE 9 11 5 6 1024.4 - 0.0
02/03:40pm 13.6 12.2 9.5 76 2.2 NNE 7 11 4 6 1024.3 - 0.0
02/03:30pm 13.8 12.4 9.5 75 2.3 N 7 11 4 6 1024.2 - 0.0
02/03:20pm 13.6 12.2 9.7 77 2.1 NNW 7 9 4 5 1024.3 - 0.0
02/03:10pm 13.6 11.8 9.4 76 2.2 N 9 13 5 7 1024.5 - 0.0
02/03:00pm 14.0 12.2 9.3 73 2.5 N 9 13 5 7 1024.3 - 0.0
02/02:50pm 14.0 12.8 9.5 74 2.4 N 6 9 3 5 1024.4 - 0.0
02/02:40pm 14.2 13.0 9.5 73 2.5 N 6 9 3 5 1024.3 - 0.0
02/02:20pm 14.1 12.6 9.0 71 2.7 NNE 7 9 4 5 1024.2 - 0.0
02/02:10pm 13.5 12.0 9.2 75 2.3 NE 7 9 4 5 1024.2 - 0.0
02/02:00pm 13.6 11.8 9.3 75 2.3 NNE 9 11 5 6 1024.3 - 0.0
02/01:50pm 14.0 12.5 9.3 73 2.5 NNE 7 11 4 6 1024.3 - 0.0
02/01:40pm 13.8 12.9 9.1 73 2.5 N 4 7 2 4 1024.5 - 0.0
02/01:30pm 13.5 12.6 9.4 76 2.2 N 4 7 2 4 1024.5 - 0.0
02/01:20pm 14.2 13.0 9.4 73 2.6 NNE 6 9 3 5 1024.6 - 0.0
02/01:10pm 14.7 13.6 10.0 73 2.6 N 6 11 3 6 1024.8 - 0.0
02/01:00pm 13.8 12.7 9.8 77 2.2 NNW 6 7 3 4 1024.9 - 0.0
02/12:50pm 14.1 12.9 9.7 75 2.4 N 6 9 3 5 1024.8 - 0.0
02/12:40pm 14.2 12.9 9.2 72 2.7 NNE 6 7 3 4 1024.9 - 0.0
02/12:30pm 12.9 12.3 9.0 77 2.1 WSW 2 6 1 3 1025.1 - 0.0
02/12:20pm 11.9 11.3 9.1 83 1.5 SW 2 4 1 2 1025.3 - 0.0
02/12:10pm 11.4 10.8 9.0 85 1.3 E 2 4 1 2 1025.4 - 0.0
02/12:00pm 11.1 10.1 9.0 87 1.1 NNE 4 6 2 3 1025.6 - 0.0
02/11:50am 11.0 10.5 9.3 89 0.9 NNE 2 6 1 3 1025.7 - 0.0
02/11:40am 10.6 9.7 9.2 91 0.7 N 4 4 2 2 1025.9 - 0.0
02/11:30am 10.4 9.5 9.2 92 0.6 N 4 7 2 4 1026.1 - 0.0
02/11:20am 10.1 8.6 9.1 93 0.5 N 7 11 4 6 1026.2 - 0.0
02/11:10am 10.3 8.8 9.3 93 0.5 NNE 7 11 4 6 1026.3 - 0.0
02/11:00am 10.3 9.5 9.5 95 0.4 N 4 6 2 3 1026.5 - 0.0
02/10:50am 10.0 9.5 9.2 95 0.4 N 2 4 1 2 1026.5 - 0.0
02/10:40am 9.7 9.1 8.9 95 0.4 NNE 2 4 1 2 1026.7 - 0.0
02/10:30am 9.1 8.4 8.4 95 0.4 SW 2 4 1 2 1026.8 - 0.0
02/10:20am 8.9 8.1 8.2 95 0.4 SW 2 4 1 2 1027.0 - 0.0
02/10:10am 8.6 7.4 7.9 95 0.4 SW 4 6 2 3 1027.0 - 0.0
02/10:00am 8.3 7.0 7.7 96 0.3 SW 4 6 2 3 1026.9 - 0.0
02/09:30am 8.3 7.7 7.6 95 0.3 CALM 0 2 0 1 1026.6 - 0.0
02/09:20am 8.3 7.4 7.6 95 0.3 NW 2 4 1 2 1026.5 - 0.0
02/09:10am 8.3 7.7 7.6 95 0.3 CALM 0 2 0 1 1026.4 - 0.0
02/09:00am 8.1 7.5 7.4 95 0.3 CALM 0 2 0 1 1026.3 - 0.0
02/08:50am 8.0 7.4 7.3 95 0.3 CALM 0 0 0 0 1026.2 - 0.0
02/08:40am 8.0 7.4 7.3 95 0.3 CALM 0 2 0 1 1026.2 - 0.0
02/08:30am 7.7 7.0 7.1 96 0.3 CALM 0 2 0 1 1026.0 - 0.0
02/08:20am 7.5 6.8 6.9 96 0.3 CALM 0 2 0 1 1026.0 - 0.0
02/08:10am 7.3 6.2 6.7 96 0.3 SW 2 4 1 2 1025.9 - 0.0
02/08:00am 7.2 5.6 6.5 95 0.3 SSW 4 6 2 3 1025.7 - 0.0
02/07:50am 7.2 6.0 6.5 95 0.3 SW 2 4 1 2 1025.6 - 0.0
02/07:40am 7.1 5.5 6.5 96 0.3 SSW 4 4 2 2 1025.5 - 0.0
02/07:30am 7.1 5.9 6.4 95 0.3 SSW 2 4 1 2 1025.5 - 0.0
02/07:20am 7.1 6.3 6.4 95 0.3 CALM 0 0 0 0 1025.3 - 0.0
02/07:10am 7.0 6.2 6.3 95 0.3 CALM 0 0 0 0 1025.2 - 0.0
02/07:00am 6.9 6.0 6.2 95 0.3 CALM 0 0 0 0 1025.0 - 0.0
02/06:50am 7.0 6.2 6.3 95 0.3 CALM 0 4 0 2 1025.1 - 0.0
02/06:40am 6.9 5.3 6.2 95 0.3 NE 4 6 2 3 1024.8 - 0.0
02/06:30am 6.8 5.1 6.1 95 0.3 NE 4 6 2 3 1024.8 - 0.0
02/06:20am 6.8 5.5 6.1 95 0.3 ENE 2 4 1 2 1024.6 - 0.0
02/06:10am 6.9 5.6 6.1 95 0.4 N 2 4 1 2 1024.7 - 0.0
02/06:00am 7.0 5.7 6.2 95 0.4 NE 2 4 1 2 1024.6 - 0.0
02/05:50am 7.1 5.5 6.2 94 0.4 N 4 6 2 3 1024.6 - 0.0
02/05:40am 7.2 6.4 6.3 94 0.4 CALM 0 2 0 1 1024.6 - 0.0
02/05:30am 7.2 6.0 6.4 95 0.4 SW 2 4 1 2 1024.4 - 0.0
02/05:20am 7.2 6.0 6.4 95 0.4 ESE 2 4 1 2 1024.3 - 0.0
02/05:10am 7.3 6.1 6.5 95 0.4 NE 2 4 1 2 1024.3 - 0.0
02/05:00am 7.4 6.6 6.5 94 0.4 CALM 0 2 0 1 1024.2 - 0.0
02/04:50am 7.4 6.2 6.5 94 0.4 S 2 4 1 2 1024.1 - 0.0
02/04:40am 7.2 6.0 6.3 94 0.4 SE 2 4 1 2 1024.1 - 0.0
02/04:30am 7.4 6.6 6.4 93 0.5 CALM 0 2 0 1 1024.1 - 0.0
02/04:20am 7.5 6.7 6.6 94 0.4 CALM 0 2 0 1 1024.0 - 0.0
02/04:10am 7.2 6.4 6.3 94 0.4 CALM 0 2 0 1 1024.2 - 0.0
02/04:00am 7.2 5.6 6.3 94 0.4 S 4 6 2 3 1024.3 - 0.0
02/03:50am 7.4 6.2 6.4 93 0.5 SSE 2 4 1 2 1024.2 - 0.0
02/03:40am 7.4 6.6 6.4 93 0.5 CALM 0 2 0 1 1024.3 - 0.0
02/03:30am 7.7 6.5 6.5 92 0.6 N 2 7 1 4 1024.2 - 0.0
02/03:20am 8.0 5.9 6.8 92 0.6 NE 7 9 4 5 1024.2 - 0.0
02/03:10am 8.0 6.1 6.9 93 0.5 ENE 6 7 3 4 1024.3 - 0.0
02/03:00am 7.9 6.4 6.7 92 0.6 ENE 4 7 2 4 1024.3 - 0.0
02/02:50am 8.1 6.2 6.7 91 0.7 NE 6 6 3 3 1024.3 - 0.0
02/02:40am 8.1 6.2 6.7 91 0.7 ENE 6 7 3 4 1024.3 - 0.0
02/02:30am 8.0 6.0 6.4 90 0.8 NNE 6 6 3 3 1024.3 - 0.0
02/02:20am 8.0 6.4 6.5 90 0.7 NE 4 7 2 4 1024.2 - 0.0
02/02:10am 8.2 6.3 6.5 89 0.8 NE 6 9 3 5 1024.3 - 0.0
02/02:00am 8.7 7.4 6.2 84 1.2 NE 2 4 1 2 1024.2 - 0.0
02/01:50am 8.8 6.3 6.5 85 1.1 NE 9 11 5 6 1024.2 - 0.0
02/01:40am 8.7 6.5 6.3 85 1.2 ENE 7 9 4 5 1024.1 - 0.0
02/01:30am 8.5 6.5 6.4 87 1.0 NE 6 9 3 5 1024.2 - 0.0
02/01:20am 8.5 6.3 6.3 86 1.1 ENE 7 9 4 5 1024.2 - 0.0
02/01:10am 8.3 6.2 6.0 85 1.1 ENE 6 9 3 5 1024.3 - 0.0
02/01:00am 7.7 5.9 5.3 85 1.1 N 4 7 2 4 1024.2 - 0.0
02/12:50am 7.7 5.8 4.7 81 1.4 S 4 7 2 4 1024.2 - 0.0
02/12:40am 7.7 5.4 4.8 82 1.3 SSW 6 7 3 4 1024.1 - 0.0
02/12:30am 7.9 6.0 4.9 81 1.4 SSW 4 6 2 3 1024.1 - 0.0
02/12:20am 8.2 6.6 4.6 78 1.7 S 2 6 1 3 1024.0 - 0.0
02/12:10am 8.6 7.0 4.4 75 1.9 S 2 4 1 2 1024.0 - 0.0
02/12:00am 9.1 6.8 4.8 74 2.0 NE 6 9 3 5 1023.8 - 0.0
 
Date/Time
EST
Temp
°C
App
Temp
°C
Dew
Point
°C
Rel
Hum
%
Delta-T
°C
Wind Press
QNH
hPa
Press
MSL
hPa
Rain since
9am
mm
Dir  Spd
km/h
Gust
km/h
Spd
kts
Gust
kts
01/11:50pm 9.1 6.2 4.8 74 2.0 ENE 9 11 5 6 1023.6 - 0.0
01/11:40pm 8.6 6.6 4.3 74 2.0 SSE 4 6 2 3 1023.8 - 0.0
01/11:30pm 9.4 7.0 4.3 70 2.4 SW 6 11 3 6 1023.7 - 0.0
01/11:20pm 9.6 7.5 3.8 67 2.7 WSW 4 7 2 4 1023.6 - 0.0
01/11:10pm 10.2 8.5 3.8 64 3.0 SW 2 7 1 4 1023.6 - 0.0
01/11:00pm 10.4 8.6 3.7 63 3.1 SSW 2 7 1 4 1023.6 - 0.0
01/10:50pm 10.7 8.2 3.8 62 3.2 SSW 6 11 3 6 1023.6 - 0.0
01/10:40pm 10.9 7.5 3.8 61 3.3 SSW 11 13 6 7 1023.6 - 0.0
01/10:30pm 10.9 7.0 3.5 60 3.4 SSW 13 15 7 8 1023.5 - 0.0
01/10:20pm 11.0 6.7 3.5 60 3.5 S 15 17 8 9 1023.5 - 0.0
01/10:10pm 11.0 7.2 3.7 60 3.4 S 13 17 7 9 1023.5 - 0.0
01/10:00pm 10.7 7.6 3.7 62 3.3 SSW 9 13 5 7 1023.4 - 0.0
01/09:50pm 10.9 7.4 3.5 60 3.4 SSW 11 13 6 7 1023.4 - 0.0
01/09:40pm 11.0 7.9 3.8 61 3.4 S 9 13 5 7 1023.3 - 0.0
01/09:30pm 11.3 8.2 3.6 59 3.6 SSW 9 15 5 8 1023.2 - 0.0
01/09:20pm 11.3 7.5 3.7 59 3.5 SSW 13 17 7 9 1023.1 - 0.0
01/09:10pm 11.3 7.4 3.4 58 3.7 S 13 20 7 11 1023.0 - 0.0
01/09:00pm 11.5 8.8 3.5 58 3.7 SSW 7 15 4 8 1023.1 - 0.0
01/08:50pm 10.9 8.5 4.1 63 3.2 SW 6 13 3 7 1023.0 - 0.0
01/08:40pm 10.9 8.8 4.1 63 3.2 W 4 7 2 4 1022.9 - 0.0
01/08:30pm 10.9 9.1 3.7 61 3.4 S 2 6 1 3 1022.8 - 0.0
01/08:20pm 11.0 8.5 3.9 61 3.3 S 6 7 3 4 1022.6 - 0.0
01/08:10pm 11.4 8.7 3.8 59 3.6 SW 7 13 4 7 1022.6 - 0.0
01/08:00pm 11.2 7.8 3.8 60 3.5 SSW 11 17 6 9 1022.4 - 0.0
01/07:50pm 11.2 6.9 3.5 59 3.6 SSW 15 22 8 12 1022.3 - 0.0
01/07:40pm 11.2 7.8 3.9 61 3.4 SSW 11 17 6 9 1022.2 - 0.0
01/07:30pm 11.1 8.1 4.0 61 3.3 S 9 15 5 8 1022.2 - 0.0
01/07:20pm 11.1 8.2 4.4 63 3.2 S 9 11 5 6 1022.2 - 0.0
01/07:10pm 11.2 8.8 5.1 66 2.9 SSW 7 11 4 6 1022.0 - 0.0
01/07:00pm 11.3 8.5 5.1 65 3.0 SW 9 13 5 7 1021.9 - 0.0
01/06:50pm 11.3 8.6 5.5 67 2.8 SSW 9 13 5 7 1021.7 - 0.0
01/06:40pm 11.6 9.4 6.0 68 2.8 S 7 15 4 8 1021.5 - 0.0
01/06:30pm 11.8 8.7 5.7 66 3.0 WSW 11 17 6 9 1021.4 - 0.0
01/06:20pm 11.7 9.1 6.1 68 2.8 WSW 9 17 5 9 1021.3 - 0.0
01/06:10pm 11.8 8.8 5.8 66 2.9 WSW 11 17 6 9 1021.1 - 0.0
01/06:00pm 11.7 9.1 6.2 69 2.7 SW 9 11 5 6 1021.1 - 0.0
01/05:50pm 11.7 10.1 6.3 69 2.7 SW 4 9 2 5 1021.0 - 0.0
01/05:40pm 11.8 9.8 6.3 69 2.7 SSW 6 13 3 7 1020.8 - 0.0
01/05:30pm 12.0 10.0 6.3 68 2.8 SW 6 11 3 6 1020.7 - 0.0
01/05:20pm 12.0 10.4 6.3 68 2.8 SW 4 11 2 6 1020.4 - 0.0
01/05:10pm 12.1 10.5 6.2 67 2.9 W 4 9 2 5 1020.3 - 0.0
01/05:00pm 12.2 10.6 6.4 67 2.9 W 4 7 2 4 1020.2 - 0.0
01/04:50pm 12.4 10.3 6.5 67 3.0 W 7 11 4 6 1020.0 - 0.0
01/04:40pm 12.6 10.1 6.4 66 3.1 W 9 15 5 8 1020.0 - 0.0
01/04:30pm 12.8 10.3 6.4 65 3.2 W 9 11 5 6 1020.0 - 0.0
01/04:20pm 12.9 10.0 6.4 64 3.3 WSW 11 15 6 8 1019.8 - 0.0
01/04:10pm 13.1 10.2 6.6 64 3.3 WSW 11 20 6 11 1019.8 - 0.0
01/04:00pm 13.4 10.9 6.6 63 3.4 W 9 17 5 9 1019.7 - 0.0
01/03:50pm 13.7 11.8 6.7 62 3.5 WNW 6 7 3 4 1019.7 - 0.0
01/03:40pm 13.8 11.9 6.6 62 3.6 W 6 9 3 5 1019.7 - 0.0
01/03:30pm 13.7 11.6 6.6 62 3.6 SW 7 13 4 7 1019.4 - 0.0
01/03:20pm 13.8 9.8 6.6 62 3.6 WSW 17 26 9 14 1019.3 - 0.0
01/03:10pm 14.4 9.8 6.3 58 4.1 SW 20 28 11 15 1019.2 - 0.0
01/03:00pm 14.9 10.4 6.3 56 4.4 WSW 19 28 10 15 1018.9 - 0.0
01/02:50pm 14.9 10.4 6.3 56 4.4 WSW 19 24 10 13 1018.8 - 0.0
01/02:40pm 15.0 11.0 6.7 57 4.2 WSW 17 24 9 13 1018.6 - 0.0
01/02:30pm 15.1 11.4 6.1 55 4.5 WSW 15 22 8 12 1018.6 - 0.0
01/02:20pm 15.0 10.5 6.2 55 4.5 WSW 19 32 10 17 1018.5 - 0.0
01/02:10pm 15.3 10.9 6.4 55 4.5 WSW 19 26 10 14 1018.4 - 0.0
01/02:00pm 15.9 11.8 6.4 53 4.9 WSW 17 20 9 11 1018.4 - 0.0
01/01:50pm 15.9 11.4 6.1 52 5.0 WSW 19 26 10 14 1018.1 - 0.0
01/01:40pm 15.8 11.1 6.2 53 4.9 WSW 20 26 11 14 1018.0 - 0.0
01/01:30pm 15.7 10.3 6.2 53 4.8 SW 24 32 13 17 1018.0 - 0.0
01/01:20pm 16.0 10.9 6.1 52 5.0 SW 22 32 12 17 1017.9 - 0.0
01/01:00pm 16.9 13.8 7.2 52 5.1 SW 13 19 7 10 1017.9 - 0.0
01/12:50pm 16.3 12.4 6.9 53 4.9 WSW 17 22 9 12 1018.0 - 0.0
01/12:40pm 16.1 11.6 7.0 54 4.7 SW 20 26 11 14 1017.9 - 0.0
01/12:10pm 16.1 10.7 6.2 52 5.0 WSW 24 30 13 16 1018.1 - 0.0
01/12:00pm 15.8 9.2 5.9 51 5.0 WSW 30 35 16 19 1018.1 - 0.0
01/11:50am 16.2 11.1 5.9 50 5.2 SW 22 26 12 14 1018.2 - 0.0
01/11:40am 15.9 11.3 5.4 49 5.3 SW 19 26 10 14 1018.3 - 0.0
01/11:30am 15.6 10.2 4.4 47 5.5 WSW 22 37 12 20 1018.3 - 0.0
01/11:20am 15.7 10.6 4.2 46 5.6 SW 20 30 11 16 1018.5 - 0.0
01/11:10am 15.4 10.4 4.5 48 5.3 SW 20 30 11 16 1018.5 - 0.0
01/11:00am 15.4 11.3 4.4 48 5.4 WSW 15 20 8 11 1018.5 - 0.0
01/10:50am 15.0 10.4 3.9 47 5.4 WSW 17 24 9 13 1018.5 - 0.0
01/10:40am 14.9 10.5 4.6 50 5.0 WSW 17 20 9 11 1018.5 - 0.0
01/10:30am 14.5 9.6 4.3 50 4.9 WSW 19 24 10 13 1018.5 - 0.0
01/10:20am 14.4 9.6 4.6 51 4.8 WSW 19 28 10 15 1018.4 - 0.0
01/10:10am 14.3 8.9 4.6 52 4.7 W 22 28 12 15 1018.4 - 0.0
01/10:00am 14.4 10.5 5.2 54 4.5 WSW 15 24 8 13 1018.4 - 0.0
01/09:50am 14.2 9.4 4.7 53 4.6 WSW 19 30 10 16 1018.2 - 0.0
01/09:40am 14.1 9.2 4.1 51 4.8 W 19 22 10 12 1018.2 - 0.0
01/09:30am 14.2 9.7 4.0 50 4.9 WSW 17 22 9 12 1018.1 - 0.0
01/09:20am 14.1 10.5 5.2 55 4.4 WSW 13 20 7 11 1018.0 - 0.0
01/09:10am 13.8 10.3 5.3 56 4.2 WSW 13 22 7 12 1018.0 - 0.0
01/09:00am 13.5 8.8 5.0 56 4.2 SW 19 32 10 17 1017.8 - 0.0
01/08:50am 13.2 8.9 5.2 58 3.9 WSW 17 32 9 17 1017.9 - 0.0
01/08:40am 13.0 8.1 5.1 58 3.9 WSW 20 32 11 17 1017.7 - 0.0
01/08:30am 12.8 6.8 5.3 60 3.7 WSW 26 35 14 19 1017.5 - 0.0
01/08:20am 12.5 6.5 5.3 61 3.5 SW 26 35 14 19 1017.4 - 0.0
01/08:10am 12.4 7.8 5.4 62 3.4 WSW 19 26 10 14 1017.3 - 0.0
01/08:00am 12.3 5.5 5.0 61 3.5 SW 30 43 16 23 1017.3 - 0.0
01/07:50am 12.4 8.2 5.8 64 3.3 WSW 17 20 9 11 1017.1 - 0.0
01/07:40am 12.3 8.9 6.1 66 3.1 SW 13 20 7 11 1017.0 - 0.0
01/07:30am 12.5 8.4 6.2 65 3.1 WSW 17 30 9 16 1016.7 - 0.0
01/07:20am 12.3 9.3 6.2 66 3.0 W 11 19 6 10 1016.4 - 0.0
01/07:10am 12.4 7.8 6.4 67 3.0 WSW 20 26 11 14 1016.3 - 0.0
01/07:00am 12.5 5.5 6.7 68 2.9 WSW 33 48 18 26 1016.3 - 0.0
01/06:50am 12.4 7.9 6.8 68 2.8 WSW 20 32 11 17 1016.3 - 0.0
01/06:40am 12.4 8.1 6.9 69 2.8 WSW 19 26 10 14 1016.0 - 0.0
01/06:30am 12.4 7.0 6.5 67 3.0 SW 24 33 13 18 1016.1 - 0.0
01/06:20am 12.4 5.3 6.6 68 2.9 SW 33 43 18 23 1015.8 - 0.0
01/06:10am 12.2 6.8 6.5 68 2.8 WSW 24 35 13 19 1015.8 - 0.0
01/06:00am 12.1 7.1 6.5 68 2.8 WSW 22 28 12 15 1016.0 - 0.0
01/05:50am 12.1 5.2 6.5 68 2.8 WSW 32 43 17 23 1015.6 - 0.0
01/05:40am 12.1 6.0 6.5 68 2.8 SW 28 43 15 23 1015.6 - 0.0
01/05:30am 11.9 5.7 6.3 68 2.8 SW 28 35 15 19 1016.0 - 0.0
01/05:20am 11.8 6.7 6.1 68 2.8 WSW 22 32 12 17 1016.2 - 0.0
01/05:10am 11.8 7.3 6.2 68 2.8 WSW 19 26 10 14 1016.2 - 0.0
01/05:00am 11.7 6.3 6.4 70 2.6 WSW 24 35 13 19 1016.3 - 0.0
01/04:50am 11.7 6.6 6.2 69 2.7 W 22 26 12 14 1016.4 - 0.0
01/04:40am 11.6 7.1 6.3 70 2.6 WSW 19 26 10 14 1016.4 - 0.0
01/04:30am 11.5 5.3 6.1 69 2.7 WSW 28 33 15 18 1016.6 - 0.0
01/04:20am 11.3 4.7 5.9 69 2.6 WSW 30 41 16 22 1016.6 - 0.0
01/04:10am 11.0 5.4 5.6 69 2.6 WSW 24 32 13 17 1016.5 - 0.0
01/04:00am 10.7 6.1 5.4 70 2.6 SW 19 28 10 15 1016.3 - 0.0
01/03:50am 10.5 6.2 5.2 70 2.5 W 17 19 9 10 1016.9 - 0.0
01/03:40am 10.5 5.7 4.8 68 2.7 WSW 19 30 10 16 1016.9 - 0.0
01/03:30am 10.3 6.6 4.5 67 2.7 W 13 19 7 10 1017.4 - 0.0
01/03:20am 10.2 6.0 3.6 63 3.0 W 15 20 8 11 1017.3 - 0.0
01/03:10am 10.2 7.0 3.3 62 3.2 SW 9 13 5 7 1017.3 - 0.0
01/03:00am 10.3 6.3 3.0 60 3.3 W 13 19 7 10 1017.5 - 0.0
01/02:50am 10.3 5.6 3.2 61 3.3 WSW 17 24 9 13 1017.5 - 0.0
01/02:40am 10.2 6.3 3.4 62 3.1 W 13 26 7 14 1017.5 - 0.0
01/02:30am 10.4 5.4 3.8 63 3.1 WSW 19 28 10 15 1017.7 - 0.0
01/02:20am 10.4 5.5 4.1 65 2.9 SW 19 26 10 14 1017.4 - 0.0
01/02:10am 10.5 6.4 4.3 65 2.9 SW 15 28 8 15 1017.8 - 0.0
01/02:00am 10.7 5.6 4.3 64 3.0 WSW 20 28 11 15 1017.8 - 0.0
01/01:50am 10.8 5.3 4.1 63 3.1 WSW 22 33 12 18 1017.8 - 0.0
01/01:40am 10.8 5.9 4.3 64 3.1 SW 19 28 10 15 1017.8 - 0.0
01/01:30am 10.9 5.5 4.7 65 3.0 SW 22 32 12 17 1017.8 - 0.0
01/01:20am 11.0 6.2 4.8 65 3.0 WSW 19 32 10 17 1017.9 - 0.0
01/01:10am 11.1 7.1 5.0 66 2.9 WSW 15 22 8 12 1018.0 - 0.0
01/01:00am 11.0 6.0 4.8 65 3.0 SW 20 28 11 15 1017.9 - 0.0
01/12:50am 11.0 7.0 5.0 66 2.9 WSW 15 24 8 13 1018.3 - 0.0
01/12:40am 10.9 7.3 5.1 67 2.8 WSW 13 15 7 8 1018.5 - 0.0
01/12:30am 11.0 6.7 5.2 67 2.8 WSW 17 22 9 12 1018.5 - 0.0
01/12:20am 11.0 7.1 5.4 68 2.7 W 15 22 8 12 1018.5 - 0.0
01/12:10am 10.9 7.0 5.2 68 2.7 WSW 15 22 8 12 1018.6 - 0.0
01/12:00am 10.8 6.1 5.3 69 2.6 WSW 19 24 10 13 1018.7 - 0.0
 
Date/Time
EST
Temp
°C
App
Temp
°C
Dew
Point
°C
Rel
Hum
%
Delta-T
°C
Wind Press
QNH
hPa
Press
MSL
hPa
Rain since
9am
mm
Dir  Spd
km/h
Gust
km/h
Spd
kts
Gust
kts
31/11:50pm 10.8 6.9 5.3 69 2.6 WSW 15 20 8 11 1018.5 - 0.0
31/11:40pm 10.9 6.6 5.2 68 2.7 W 17 24 9 13 1018.8 - 0.0
31/11:30pm 10.9 7.0 5.2 68 2.7 WSW 15 19 8 10 1018.9 - 0.0
31/11:20pm 10.9 6.6 5.4 69 2.7 WSW 17 26 9 14 1018.9 - 0.0
31/11:10pm 11.1 5.9 5.4 68 2.8 SW 22 33 12 18 1018.7 - 0.0
31/11:00pm 11.1 5.4 5.1 66 2.9 WSW 24 35 13 19 1018.8 - 0.0
31/10:50pm 11.0 7.1 5.2 67 2.8 WSW 15 20 8 11 1018.9 - 0.0
31/10:40pm 11.2 6.9 5.4 67 2.8 WSW 17 32 9 17 1019.1 - 0.0
31/10:30pm 11.0 7.1 5.4 68 2.7 WSW 15 28 8 15 1019.3 - 0.0
31/10:20pm 11.1 6.9 5.6 69 2.7 WSW 17 24 9 13 1019.6 - 0.0
31/10:10pm 11.1 7.7 5.7 69 2.6 WSW 13 22 7 12 1019.6 - 0.0
31/10:00pm 10.9 6.7 5.7 70 2.5 WSW 17 19 9 10 1019.7 - 0.0
31/09:50pm 11.0 6.4 5.5 69 2.7 WSW 19 24 10 13 1019.8 - 0.0
31/09:40pm 11.1 7.0 6.1 71 2.5 WSW 17 22 9 12 1019.9 - 0.0
31/09:30pm 10.8 7.4 6.0 72 2.3 WSW 13 22 7 12 1020.0 - 0.0
31/09:20pm 10.7 7.4 6.3 74 2.2 WSW 13 15 7 8 1020.2 - 0.0
31/09:10pm 10.6 7.0 6.7 77 1.9 WSW 15 26 8 14 1020.1 - 0.0
31/09:00pm 10.5 7.0 7.2 80 1.7 WSW 15 20 8 11 1020.1 - 0.0
31/08:50pm 10.6 7.5 7.1 79 1.8 WSW 13 17 7 9 1020.1 - 0.0
31/08:40pm 10.5 6.1 6.7 77 1.9 SW 19 24 10 13 1020.0 - 0.0
31/08:30pm 10.3 6.7 6.6 78 1.8 WSW 15 22 8 12 1020.1 - 0.0
31/08:20pm 10.2 6.6 6.8 79 1.7 WSW 15 20 8 11 1020.3 - 0.0
31/08:10pm 10.2 6.2 6.8 79 1.7 WSW 17 22 9 12 1020.2 - 0.0
31/08:00pm 10.4 6.1 6.9 79 1.7 WSW 19 22 10 12 1020.2 - 0.0
31/07:50pm 10.6 6.2 6.5 76 2.0 WSW 19 24 10 13 1020.2 - 0.0
31/07:40pm 10.5 7.6 6.3 75 2.1 WSW 11 17 6 9 1020.2 - 0.0
31/07:30pm 10.6 8.0 6.2 74 2.2 W 9 13 5 7 1020.3 - 0.0
31/07:00pm 10.4 8.2 6.3 76 2.0 WNW 7 9 4 5 1020.1 - 0.0
31/06:50pm 10.7 7.7 6.1 73 2.3 W 11 15 6 8 1019.9 - 0.0
31/06:40pm 10.6 6.8 5.9 73 2.3 WSW 15 20 8 11 1019.9 - 0.0
31/06:20pm 10.6 7.6 5.9 73 2.3 WSW 11 19 6 10 1019.6 - 0.0
31/06:10pm 10.6 6.4 5.9 73 2.3 SW 17 24 9 13 1019.5 - 0.0
31/05:50pm 10.5 6.0 6.1 74 2.2 SW 19 26 10 14 1019.6 - 0.0
31/05:20pm 10.8 6.3 5.9 72 2.4 SW 19 24 10 13 1019.6 - 0.0
31/05:10pm 10.9 7.4 5.6 70 2.6 SSW 13 17 7 9 1019.6 - 0.0
31/04:50pm 10.8 6.0 4.9 67 2.8 SSW 19 28 10 15 1019.4 - 0.0
31/04:40pm 10.9 6.0 5.2 68 2.7 SSW 20 24 11 13 1019.6 - 0.0
31/04:30pm 11.2 6.0 5.6 68 2.7 SSW 22 30 12 16 1019.2 - 0.0
31/04:20pm 11.7 6.9 5.6 66 3.0 SSW 20 24 11 13 1019.1 - 0.0
31/04:10pm 11.8 6.6 5.6 66 3.0 S 22 26 12 14 1019.1 - 0.0
31/04:00pm 12.4 7.0 6.2 66 3.1 SSW 24 30 13 16 1019.2 - 0.0
31/03:50pm 12.0 6.5 5.7 65 3.1 SSW 24 32 13 17 1018.9 - 0.0
31/03:20pm 12.7 7.2 6.0 63 3.3 SSW 24 35 13 19 1019.1 - 0.0
31/03:10pm 12.0 7.3 6.2 67 2.9 SSW 20 30 11 16 1019.0 - 0.0
31/03:00pm 11.9 7.7 5.7 66 3.0 SSW 17 24 9 13 1019.1 - 0.0
31/02:40pm 11.8 6.8 6.3 69 2.7 SW 22 37 12 20 1019.1 - 0.0
31/02:30pm 11.9 6.2 6.7 70 2.6 SSW 26 33 14 18 1019.1 - 0.0
31/02:10pm 11.8 6.5 6.6 70 2.6 WSW 24 32 13 17 1019.2 - 0.0
31/02:00pm 11.8 6.8 6.5 70 2.6 SSW 22 32 12 17 1019.1 - 0.0
31/01:50pm 11.7 6.7 6.6 71 2.5 S 22 32 12 17 1019.4 - 0.0
31/01:40pm 11.7 6.4 6.6 71 2.5 SSW 24 32 13 17 1019.7 - 0.0
31/01:30pm 11.7 6.3 6.4 70 2.6 SSW 24 35 13 19 1019.6 - 0.0
31/01:20pm 11.8 7.3 6.3 69 2.7 SSW 19 28 10 15 1019.8 - 0.0
31/01:10pm 11.6 6.9 6.2 69 2.7 SSW 20 28 11 15 1019.9 - 0.0
31/01:00pm 11.4 6.4 6.4 71 2.5 SSW 22 28 12 15 1019.8 - 0.0
31/12:50pm 11.3 6.7 6.3 71 2.5 SW 20 28 11 15 1020.1 - 0.0
31/12:40pm 11.4 5.6 6.4 71 2.5 SW 26 30 14 16 1020.4 - 0.0
31/12:30pm 11.5 5.7 6.2 70 2.6 SW 26 35 14 19 1020.3 - 0.0
31/12:10pm 11.6 7.1 6.3 70 2.6 SW 19 24 10 13 1021.0 - 0.0
31/12:00pm 11.6 6.1 6.0 68 2.8 SW 24 28 13 15 1021.0 - 0.0
31/11:50am 11.5 6.0 6.0 69 2.7 SW 24 32 13 17 1021.0 - 0.0
31/11:40am 11.5 6.0 6.1 69 2.7 SW 24 33 13 18 1021.0 - 0.0
31/11:30am 11.3 4.7 6.1 70 2.6 SW 30 37 16 20 1021.1 - 0.0
31/11:20am 11.2 4.2 5.9 70 2.6 SW 32 37 17 20 1021.1 - 0.0
31/11:00am 10.9 4.4 6.4 74 2.2 SW 30 37 16 20 1021.6 - 0.0
31/10:40am 10.8 4.3 6.4 74 2.2 SW 30 35 16 19 1021.7 - 0.0
31/10:30am 10.8 5.5 6.6 75 2.1 SW 24 35 13 19 1022.0 - 0.0
31/10:20am 10.9 5.2 6.5 74 2.2 SW 26 33 14 18 1022.2 - 0.0
31/10:10am 11.0 6.0 6.3 73 2.3 SW 22 26 12 14 1022.3 - 0.0
31/10:00am 10.8 6.3 6.1 73 2.3 SW 19 24 10 13 1022.1 - 0.0
31/09:50am 10.7 6.0 6.1 73 2.3 SW 20 30 11 16 1022.2 - 0.0
31/09:30am 10.5 4.7 6.2 75 2.1 SW 26 30 14 16 1022.0 - 0.0
31/09:20am 10.5 3.9 6.2 75 2.1 SW 30 35 16 19 1022.1 - 0.0
31/09:10am 10.4 5.7 6.1 75 2.1 SW 20 28 11 15 1021.8 - 0.0
31/09:00am 10.4 5.7 6.2 75 2.1 SW 20 28 11 15 1022.0 - 0.0
31/08:50am 10.5 4.7 6.2 75 2.1 SW 26 32 14 17 1021.9 - 0.0
31/08:40am 10.5 5.0 6.1 74 2.2 SW 24 32 13 17 1021.7 - 0.0
31/08:30am 10.5 5.4 6.1 74 2.2 SW 22 28 12 15 1021.9 - 0.0
31/08:20am 10.5 6.0 6.0 74 2.2 SW 19 28 10 15 1022.1 - 0.0
31/08:10am 10.4 5.9 5.9 73 2.2 SSW 19 24 10 13 1022.0 - 0.0
31/08:00am 10.3 6.2 6.0 74 2.1 SSW 17 19 9 10 1022.2 - 0.0
31/07:50am 10.3 6.9 5.9 74 2.1 SSW 13 19 7 10 1022.1 - 0.0
31/07:40am 10.3 6.5 5.8 73 2.2 SW 15 26 8 14 1021.9 - 0.0
31/07:30am 10.3 6.2 6.0 74 2.1 SW 17 26 9 14 1022.0 - 0.0
31/07:20am 10.2 7.1 5.7 73 2.2 SSW 11 15 6 8 1022.0 - 0.0
31/07:10am 10.0 6.9 5.5 73 2.2 S 11 19 6 10 1021.7 - 0.0
31/06:50am 9.9 7.6 5.6 74 2.1 SW 7 11 4 6 1022.0 - 0.0
31/06:40am 9.9 5.7 5.8 75 2.0 SW 17 22 9 12 1022.0 - 0.0
31/06:30am 10.0 6.2 5.9 75 2.0 SW 15 22 8 12 1022.1 - 0.0
31/06:20am 10.1 7.4 5.7 74 2.1 WSW 9 17 5 9 1021.9 - 0.0
31/06:10am 10.1 6.7 5.7 74 2.1 SW 13 19 7 10 1021.8 - 0.0
31/06:00am 10.1 5.9 5.7 74 2.1 SW 17 22 9 12 1021.6 - 0.0
31/05:50am 10.0 6.2 5.9 75 2.0 SSW 15 17 8 9 1021.7 - 0.0
31/05:40am 10.0 5.8 5.8 75 2.0 SW 17 22 9 12 1021.7 - 0.0
31/05:30am 10.0 6.2 5.8 75 2.0 WSW 15 19 8 10 1021.6 - 0.0
31/05:20am 10.0 5.8 5.9 75 2.0 SW 17 22 9 12 1021.6 - 0.0
31/05:10am 10.1 5.9 5.9 75 2.0 SW 17 22 9 12 1021.6 - 0.0
31/05:00am 10.1 7.1 5.9 75 2.0 SW 11 17 6 9 1021.6 - 0.0
31/04:50am 10.2 6.4 5.7 73 2.2 SW 15 20 8 11 1021.6 - 0.0
31/04:40am 10.1 6.7 6.0 76 2.0 SW 13 22 7 12 1021.6 - 0.0
31/04:30am 10.1 7.9 5.5 73 2.2 SSW 6 7 3 4 1021.6 - 0.0
31/04:20am 10.1 7.7 5.4 72 2.3 SSW 7 15 4 8 1021.6 - 0.0
31/04:10am 9.9 7.7 5.5 74 2.1 SW 6 11 3 6 1021.6 - 0.0
31/04:00am 9.7 7.4 5.7 76 1.9 SSW 7 9 4 5 1021.6 - 0.0
31/03:50am 9.8 7.7 5.9 77 1.9 SW 6 7 3 4 1021.7 - 0.0
31/03:40am 10.0 7.9 5.8 75 2.0 SSW 6 7 3 4 1021.7 - 0.0
31/03:30am 10.1 7.8 5.8 74 2.1 SW 7 9 4 5 1021.8 - 0.0
31/03:20am 10.0 8.0 6.2 77 1.9 SW 6 9 3 5 1021.9 - 0.0
31/03:10am 10.1 6.7 5.8 74 2.1 SSW 13 19 7 10 1022.1 - 0.0
31/03:00am 10.1 6.7 6.0 76 2.0 SW 13 20 7 11 1022.2 - 0.0
31/02:50am 10.0 6.6 6.0 76 1.9 SW 13 20 7 11 1022.3 - 0.0
31/02:40am 10.1 7.5 6.2 77 1.9 WSW 9 13 5 7 1022.3 - 0.0
31/02:30am 10.0 7.4 6.0 76 1.9 WSW 9 11 5 6 1022.5 - 0.0
31/02:20am 10.1 7.9 6.4 78 1.8 SW 7 11 4 6 1022.6 - 0.0
31/02:10am 10.2 7.6 6.3 77 1.9 SW 9 15 5 8 1022.7 - 0.0
31/02:00am 10.0 7.4 6.1 77 1.9 SSW 9 13 5 7 1022.9 - 0.0
31/01:50am 9.9 7.9 6.1 77 1.9 SW 6 9 3 5 1023.0 - 0.0
31/01:40am 9.5 7.8 6.1 79 1.7 WNW 4 6 2 3 1023.2 - 0.0
31/01:30am 9.5 8.0 6.9 84 1.3 N 4 6 2 3 1023.2 - 0.0
31/01:20am 9.7 7.8 6.5 80 1.6 SSW 6 13 3 7 1023.1 - 0.0
31/01:10am 9.7 8.6 6.8 82 1.4 NNW 2 4 1 2 1023.1 - 0.0
31/01:00am 9.9 7.4 6.7 80 1.6 SW 9 11 5 6 1023.3 - 0.0
31/12:50am 9.9 7.4 6.5 79 1.7 SW 9 11 5 6 1023.3 - 0.0

Other formats

Comma delimited format used in spreadsheet applications
http://www.bom.gov.au/fwo/IDN60801/IDN60801.99762.axf

JavaScript Object Notation format (JSON) in row-major order
http://www.bom.gov.au/fwo/IDN60801/IDN60801.99762.json

Data quality

Most of these data are generated automatically and are frequently updated. Quality checks on data are not normally performed. It is possible for incorrect values to appear. Refer to information at About Latest Weather Observations and please check the disclaimer before using these data.